createdAt,value
2023-03-08T00:01:13.239Z,4.70
2023-03-08T00:04:14.599Z,2.40
2023-03-08T00:07:15.931Z,2.60
2023-03-08T00:10:17.486Z,3.17
2023-03-08T00:13:18.758Z,2.83
2023-03-08T00:16:20.137Z,2.72
2023-03-08T00:19:21.485Z,2.38
2023-03-08T00:22:22.770Z,3.15
2023-03-08T00:25:24.289Z,3.13
2023-03-08T00:28:25.544Z,4.07
2023-03-08T00:31:26.875Z,2.33
2023-03-08T00:34:28.340Z,2.28
2023-03-08T00:37:29.607Z,2.03
2023-03-08T00:40:30.912Z,3.55
2023-03-08T00:43:32.734Z,3.80
2023-03-08T00:46:34.127Z,3.55
2023-03-08T00:49:35.461Z,2.30
2023-03-08T00:52:36.751Z,2.80
2023-03-08T00:55:38.181Z,2.50
2023-03-08T00:58:40.409Z,2.47
2023-03-08T01:01:41.702Z,3.08
2023-03-08T01:04:42.946Z,2.85
2023-03-08T01:07:44.217Z,2.63
2023-03-08T01:10:52.811Z,1.20
2023-03-08T01:13:54.454Z,2.40
2023-03-08T01:16:55.746Z,2.75
2023-03-08T01:19:57.368Z,2.05
2023-03-08T01:22:58.706Z,2.53
2023-03-08T01:26:01.077Z,2.72
2023-03-08T01:29:02.518Z,2.30
2023-03-08T01:32:03.830Z,2.65
2023-03-08T01:35:05.403Z,2.42
2023-03-08T01:38:06.642Z,3.17
2023-03-08T01:41:08.340Z,2.90
2023-03-08T01:44:14.605Z,3.25
2023-03-08T01:47:18.845Z,3.10
2023-03-08T01:50:20.380Z,2.97
2023-03-08T01:53:21.733Z,2.78
2023-03-08T01:56:24.634Z,2.95
2023-03-08T01:59:26.567Z,2.53
2023-03-08T02:02:30.565Z,1.70
2023-03-08T02:05:32.331Z,1.98
2023-03-08T02:08:33.874Z,2.92
2023-03-08T02:11:36.569Z,2.40
2023-03-08T02:14:38.084Z,2.88
2023-03-08T02:17:39.955Z,2.15
2023-03-08T02:20:42.008Z,1.83
2023-03-08T02:23:43.304Z,3.13
2023-03-08T02:26:45.233Z,2.72
2023-03-08T02:29:46.559Z,3.42
2023-03-08T02:32:47.851Z,3.13
2023-03-08T02:35:49.691Z,2.83
2023-03-08T02:38:51.004Z,2.83
2023-03-08T02:41:52.257Z,3.40
2023-03-08T02:44:53.585Z,2.50
2023-03-08T02:47:54.857Z,2.80
2023-03-08T02:50:56.198Z,2.72
2023-03-08T02:53:57.531Z,2.53
2023-03-08T02:56:58.969Z,2.40
2023-03-08T03:00:00.299Z,3.03
2023-03-08T03:03:01.571Z,1.92
2023-03-08T03:06:02.959Z,2.60
2023-03-08T03:09:08.301Z,2.92
2023-03-08T03:12:09.689Z,2.78
2023-03-08T03:15:11.775Z,2.83
2023-03-08T03:18:13.105Z,3.00
2023-03-08T03:21:14.552Z,2.72
2023-03-08T03:24:15.888Z,3.78
2023-03-08T03:27:17.880Z,4.45
2023-03-08T03:30:19.216Z,3.45
2023-03-08T03:33:20.585Z,2.25
2023-03-08T03:36:22.466Z,3.00
2023-03-08T03:39:23.733Z,3.92
2023-03-08T03:42:25.043Z,2.55
2023-03-08T03:45:26.331Z,2.47
2023-03-08T03:48:27.841Z,3.13
2023-03-08T03:51:29.245Z,3.50
2023-03-08T03:54:30.486Z,3.47
2023-03-08T03:57:31.802Z,2.08
2023-03-08T04:00:33.109Z,2.50
2023-03-08T04:03:34.427Z,2.33
2023-03-08T04:06:36.133Z,3.40
2023-03-08T04:09:37.398Z,3.40
2023-03-08T04:12:38.654Z,2.78
2023-03-08T04:15:39.890Z,3.78
2023-03-08T04:18:41.448Z,3.08
2023-03-08T04:21:42.723Z,2.35
2023-03-08T04:24:44.006Z,2.97
2023-03-08T04:27:45.305Z,3.15
2023-03-08T04:30:46.819Z,3.85
2023-03-08T04:33:48.253Z,3.08
2023-03-08T04:36:49.585Z,2.70
2023-03-08T04:39:50.888Z,2.13
2023-03-08T04:42:52.347Z,2.92
2023-03-08T04:45:53.640Z,2.35
2023-03-08T04:48:55.865Z,3.50
2023-03-08T04:51:57.233Z,2.53
2023-03-08T04:54:58.964Z,3.30
2023-03-08T04:58:00.237Z,2.88
2023-03-08T05:01:08.628Z,3.72
2023-03-08T05:04:11.007Z,3.78
2023-03-08T05:07:12.258Z,4.50
2023-03-08T05:10:13.502Z,3.17
2023-03-08T05:13:15.266Z,3.05
2023-03-08T05:16:16.681Z,3.30
2023-03-08T05:19:18.016Z,4.32
2023-03-08T05:22:19.313Z,3.85
2023-03-08T05:25:20.599Z,4.43
2023-03-08T05:28:23.513Z,3.70
2023-03-08T05:31:24.966Z,3.10
2023-03-08T05:34:26.252Z,3.65
2023-03-08T05:37:27.753Z,4.30
2023-03-08T05:40:29.798Z,3.83
2023-03-08T05:43:31.187Z,4.47
2023-03-08T05:46:32.462Z,3.60
2023-03-08T05:49:33.797Z,4.28
2023-03-08T05:52:35.028Z,3.80
2023-03-08T05:55:36.302Z,2.13
2023-03-08T05:58:37.940Z,3.58
2023-03-08T06:01:39.573Z,3.88
2023-03-08T06:04:40.848Z,3.83
2023-03-08T06:07:43.671Z,4.18
2023-03-08T06:10:44.949Z,3.85
2023-03-08T06:13:46.208Z,3.72
2023-03-08T06:16:48.760Z,3.90
2023-03-08T06:19:50.093Z,4.50
2023-03-08T06:22:51.379Z,4.22
2023-03-08T06:25:52.957Z,3.20
2023-03-08T06:28:54.467Z,3.70
2023-03-08T06:31:55.723Z,4.45
2023-03-08T06:34:56.994Z,5.18
2023-03-08T06:37:58.265Z,4.85
2023-03-08T06:40:59.815Z,4.07
2023-03-08T06:44:01.079Z,3.05
2023-03-08T06:47:02.374Z,3.33
2023-03-08T06:50:03.922Z,3.72
2023-03-08T06:53:05.293Z,4.30
2023-03-08T06:56:07.602Z,3.90
2023-03-08T06:59:08.886Z,3.33
2023-03-08T07:02:10.632Z,4.78
2023-03-08T07:05:11.933Z,4.68
2023-03-08T07:08:13.195Z,3.28
2023-03-08T07:11:14.479Z,5.00
2023-03-08T07:14:16.203Z,4.30
2023-03-08T07:17:17.592Z,4.05
2023-03-08T07:20:19.884Z,3.78
2023-03-08T07:23:21.194Z,3.40
2023-03-08T07:26:22.463Z,4.40
2023-03-08T07:29:23.722Z,3.75
2023-03-08T07:32:28.765Z,5.47
2023-03-08T07:35:30.353Z,2.85
2023-03-08T07:38:31.644Z,2.20
2023-03-08T07:41:34.602Z,1.52
2023-03-08T07:44:37.297Z,2.58
2023-03-08T07:47:38.993Z,3.47
2023-03-08T07:50:40.266Z,2.95
2023-03-08T07:53:41.563Z,3.10
2023-03-08T07:56:42.876Z,2.67
2023-03-08T07:59:44.194Z,2.33
2023-03-08T08:02:45.891Z,3.17
2023-03-08T08:05:47.328Z,2.53
2023-03-08T08:08:48.642Z,3.80
2023-03-08T08:11:49.928Z,3.65
2023-03-08T08:14:52.345Z,2.30
2023-03-08T08:17:53.655Z,3.25
2023-03-08T08:21:04.737Z,3.55
2023-03-08T08:24:06.399Z,3.67
2023-03-08T08:27:07.699Z,2.92
2023-03-08T08:30:09.369Z,2.63
2023-03-08T08:33:10.646Z,3.05
2023-03-08T08:36:13.728Z,3.35
2023-03-08T08:39:15.076Z,4.45
2023-03-08T08:42:16.370Z,2.65
2023-03-08T08:45:17.695Z,2.42
2023-03-08T08:48:18.993Z,2.08
2023-03-08T08:51:20.553Z,3.22
2023-03-08T08:54:21.918Z,3.47
2023-03-08T08:57:23.249Z,5.25
2023-03-08T09:00:24.697Z,4.93
2023-03-08T09:03:26.126Z,3.63
2023-03-08T09:06:28.180Z,4.15
2023-03-08T09:09:29.492Z,3.75
2023-03-08T09:12:30.874Z,5.72
2023-03-08T09:15:32.182Z,3.47
2023-03-08T09:18:33.478Z,3.90
2023-03-08T09:21:34.809Z,4.88
2023-03-08T09:24:36.110Z,4.72
2023-03-08T09:27:38.036Z,4.90
2023-03-08T09:30:39.349Z,3.35
2023-03-08T09:33:41.257Z,3.50
2023-03-08T09:36:42.614Z,4.88
2023-03-08T09:39:44.248Z,4.78
2023-03-08T09:42:45.690Z,4.07
2023-03-08T09:45:51.245Z,4.00
2023-03-08T09:48:52.787Z,4.60
2023-03-08T09:52:01.068Z,4.43
2023-03-08T09:55:03.154Z,4.50
2023-03-08T09:58:21.185Z,3.38
2023-03-08T10:01:34.600Z,2.90
2023-03-08T10:04:42.026Z,1.90
2023-03-08T10:07:55.468Z,2.80
2023-03-08T10:11:07.202Z,1.63
2023-03-08T10:14:41.323Z,1.88
2023-03-08T10:17:52.467Z,1.80
2023-03-08T10:20:53.792Z,1.55
2023-03-08T10:24:15.337Z,2.60
2023-03-08T10:27:26.730Z,2.40
2023-03-08T10:30:32.235Z,3.15
2023-03-08T10:33:34.707Z,1.95
2023-03-08T10:36:46.284Z,1.77
2023-03-08T10:39:54.968Z,2.15
2023-03-08T10:43:02.425Z,3.08
2023-03-08T10:46:05.288Z,1.88
2023-03-08T10:49:07.616Z,2.20
2023-03-08T10:52:20.201Z,1.73
2023-03-08T10:55:22.945Z,1.60
2023-03-08T10:58:27.269Z,2.03
2023-03-08T11:01:32.838Z,3.63
2023-03-08T11:04:34.194Z,1.30
2023-03-08T11:07:35.428Z,3.00
2023-03-08T11:10:36.708Z,2.42
2023-03-08T11:13:39.442Z,2.50
2023-03-08T11:16:59.249Z,1.35
2023-03-08T11:20:16.054Z,2.20
2023-03-08T11:23:20.390Z,3.83
2023-03-08T11:26:22.719Z,3.08
2023-03-08T11:29:29.613Z,3.28
2023-03-08T11:32:46.672Z,2.92
2023-03-08T11:36:00.235Z,1.95
2023-03-08T11:39:04.328Z,1.90
2023-03-08T11:42:26.450Z,3.15
2023-03-08T11:45:29.628Z,4.70
2023-03-08T11:48:36.444Z,2.72
2023-03-08T11:51:42.800Z,3.38
2023-03-08T11:54:50.310Z,2.88
2023-03-08T11:57:58.293Z,2.28
2023-03-08T12:01:01.264Z,3.10
2023-03-08T12:04:11.870Z,3.92
2023-03-08T12:07:20.558Z,3.00
2023-03-08T12:10:23.742Z,2.85
2023-03-08T12:13:35.789Z,4.10
2023-03-08T12:16:44.869Z,3.17
2023-03-08T12:19:47.632Z,3.08
2023-03-08T12:23:00.822Z,3.47
2023-03-08T12:26:19.530Z,1.52
2023-03-08T12:29:24.038Z,3.17
2023-03-08T12:32:26.071Z,2.13
2023-03-08T12:35:34.712Z,5.05
2023-03-08T12:38:37.611Z,1.73
2023-03-08T12:41:39.022Z,3.00
2023-03-08T12:44:40.720Z,3.92
2023-03-08T12:47:42.137Z,2.67
2023-03-08T12:50:58.041Z,4.38
2023-03-08T12:54:01.921Z,4.40
2023-03-08T12:57:04.256Z,4.32
2023-03-08T13:00:10.470Z,3.22
2023-03-08T13:03:14.971Z,3.20
2023-03-08T13:06:36.500Z,4.22
2023-03-08T13:09:46.847Z,2.97
2023-03-08T13:13:07.075Z,3.38
2023-03-08T13:16:19.521Z,3.08
2023-03-08T13:19:23.829Z,3.45
2023-03-08T13:22:27.971Z,3.53
2023-03-08T13:25:35.034Z,3.42
2023-03-08T13:28:46.979Z,2.78
2023-03-08T13:31:49.510Z,4.15
2023-03-08T13:35:01.442Z,3.13
2023-03-08T13:38:02.771Z,2.72
2023-03-08T13:41:04.149Z,2.95
2023-03-08T13:44:15.094Z,3.08
2023-03-08T13:47:26.740Z,2.40
2023-03-08T13:50:32.685Z,2.58
2023-03-08T13:53:36.063Z,3.95
2023-03-08T13:56:37.420Z,3.30
2023-03-08T13:59:47.336Z,2.65
2023-03-08T14:02:48.703Z,4.07
2023-03-08T14:05:50.051Z,3.40
2023-03-08T14:08:51.742Z,4.25
2023-03-08T14:12:04.771Z,4.60
2023-03-08T14:15:06.613Z,4.80
2023-03-08T14:18:15.740Z,4.95
2023-03-08T14:21:18.514Z,4.35
2023-03-08T14:24:24.480Z,3.83
2023-03-08T14:27:39.525Z,3.70
2023-03-08T14:30:46.747Z,4.45
2023-03-08T14:33:55.337Z,4.07
2023-03-08T14:36:58.525Z,3.60
2023-03-08T14:40:29.235Z,4.13
2023-03-08T14:43:30.535Z,3.70
2023-03-08T14:46:31.885Z,3.95
2023-03-08T14:49:33.241Z,3.55
2023-03-08T14:52:35.923Z,3.97
2023-03-08T14:55:40.025Z,4.63
2023-03-08T14:58:43.269Z,3.72
2023-03-08T15:01:44.666Z,4.35
2023-03-08T15:04:46.235Z,3.30
2023-03-08T15:07:48.126Z,3.63
2023-03-08T15:10:49.585Z,3.88
2023-03-08T15:13:50.928Z,4.20
2023-03-08T15:16:55.112Z,2.65
2023-03-08T15:19:56.343Z,2.90
2023-03-08T15:23:01.666Z,4.15
2023-03-08T15:26:05.004Z,3.22
2023-03-08T15:29:06.276Z,4.75
2023-03-08T15:32:08.134Z,3.30
2023-03-08T15:35:09.650Z,3.72
2023-03-08T15:38:14.779Z,3.45
2023-03-08T15:41:16.679Z,3.20
2023-03-08T15:44:17.957Z,2.53
2023-03-08T15:47:21.466Z,2.17
2023-03-08T15:50:22.874Z,1.42
2023-03-08T15:53:34.886Z,2.03
2023-03-08T15:56:36.808Z,1.25
2023-03-08T15:59:38.142Z,1.38
2023-03-08T16:02:40.395Z,1.40
2023-03-08T16:05:41.723Z,1.35
2023-03-08T16:08:43.068Z,1.42
2023-03-08T16:11:45.189Z,1.67
2023-03-08T16:14:50.162Z,1.58
2023-03-08T16:17:51.507Z,2.20
2023-03-08T16:20:52.820Z,2.20
2023-03-08T16:23:54.107Z,2.38
2023-03-08T16:26:55.521Z,1.88
2023-03-08T16:29:56.973Z,1.83
2023-03-08T16:32:58.267Z,2.90
2023-03-08T16:35:59.667Z,2.22
2023-03-08T16:39:01.426Z,1.83
2023-03-08T16:42:02.753Z,1.77
2023-03-08T16:45:04.319Z,2.13
2023-03-08T17:07:52.868Z,1.85
2023-03-08T17:10:54.153Z,1.30
2023-03-08T17:13:56.834Z,0.80
2023-03-08T17:16:58.144Z,0.88
2023-03-08T17:20:00.540Z,0.80
2023-03-08T17:23:02.085Z,1.35
2023-03-08T17:26:04.463Z,0.93
2023-03-08T17:29:05.756Z,1.00
2023-03-08T17:32:07.157Z,1.00
2023-03-08T17:35:08.685Z,0.70
2023-03-08T17:38:09.935Z,0.80
2023-03-08T17:41:12.741Z,0.90
2023-03-08T17:44:14.421Z,0.93
2023-03-08T17:47:15.727Z,0.95
2023-03-08T17:50:17.081Z,0.70
2023-03-08T17:53:18.808Z,0.90
2023-03-08T17:56:21.691Z,0.85
2023-03-08T17:59:22.973Z,1.20
2023-03-08T18:02:24.308Z,1.30
2023-03-08T18:05:25.691Z,1.10
2023-03-08T18:08:26.997Z,0.80
2023-03-08T18:11:28.434Z,1.02
2023-03-08T18:14:39.558Z,1.10
2023-03-08T18:17:41.440Z,1.58
2023-03-08T18:20:42.896Z,1.10
2023-03-08T18:23:44.842Z,0.93
2023-03-08T18:26:46.182Z,1.23
2023-03-08T18:29:47.522Z,1.60
2023-03-08T18:32:49.544Z,0.93
2023-03-08T18:35:57.542Z,1.45
2023-03-08T18:38:58.967Z,0.80
2023-03-08T18:42:01.253Z,1.52
2023-03-08T18:45:02.922Z,1.40
2023-03-08T18:48:04.238Z,2.42
2023-03-08T18:51:05.752Z,1.80
2023-03-08T18:54:08.975Z,1.42
2023-03-08T18:57:10.264Z,1.10
2023-03-08T19:00:12.161Z,2.33
2023-03-08T19:03:13.460Z,5.55
2023-03-08T19:06:14.867Z,2.17
2023-03-08T19:09:16.771Z,1.98
2023-03-08T19:12:18.140Z,3.58
2023-03-08T19:15:19.471Z,3.30
2023-03-08T19:18:20.779Z,3.78
2023-03-08T19:21:32.454Z,3.60
2023-03-08T19:24:33.783Z,2.72
2023-03-08T19:27:35.128Z,1.80
2023-03-08T19:30:36.423Z,1.13
2023-03-08T19:33:37.725Z,1.20
2023-03-08T19:36:39.396Z,1.48
2023-03-08T19:39:41.104Z,1.20
2023-03-08T19:42:42.376Z,1.45
2023-03-08T19:45:48.088Z,1.25
2023-03-08T19:48:49.478Z,1.20
2023-03-08T19:51:52.784Z,1.20
2023-03-08T19:54:54.091Z,1.60
2023-03-08T19:57:55.421Z,1.30
2023-03-08T20:01:04.313Z,1.20
2023-03-08T20:04:06.172Z,1.42
2023-03-08T20:07:07.750Z,1.35
2023-03-08T20:10:16.441Z,1.15
2023-03-08T20:13:19.586Z,1.75
2023-03-08T20:16:21.630Z,2.08
2023-03-08T20:19:23.099Z,1.25
2023-03-08T20:22:24.413Z,2.00
2023-03-08T20:25:25.728Z,1.38
2023-03-08T20:28:27.152Z,1.50
2023-03-08T20:31:29.256Z,1.50
2023-03-08T20:34:30.575Z,1.23
2023-03-08T20:37:31.959Z,1.45
2023-03-08T20:40:33.274Z,1.63
2023-03-08T20:43:34.542Z,1.52
2023-03-08T20:46:35.847Z,1.92
2023-03-08T20:49:37.485Z,2.03
2023-03-08T20:52:38.816Z,1.40
2023-03-08T20:55:40.513Z,1.83
2023-03-08T20:58:42.138Z,1.60
2023-03-08T21:01:45.660Z,1.83
2023-03-08T21:04:47.009Z,1.95
2023-03-08T21:07:48.315Z,1.75
2023-03-08T21:10:49.611Z,1.75
2023-03-08T21:13:51.506Z,1.80
2023-03-08T21:16:52.816Z,1.85
2023-03-08T21:19:54.131Z,2.70
2023-03-08T21:22:55.464Z,1.80
2023-03-08T21:25:59.016Z,2.20
2023-03-08T21:29:02.330Z,2.10
2023-03-08T21:32:04.893Z,2.20
2023-03-08T21:35:06.418Z,2.42
2023-03-08T21:38:07.712Z,2.13
2023-03-08T21:41:16.143Z,2.42
2023-03-08T21:44:18.709Z,2.42
2023-03-08T21:47:20.095Z,3.78
2023-03-08T21:50:21.397Z,5.22
2023-03-08T21:53:22.743Z,3.38
2023-03-08T21:56:24.117Z,2.40
2023-03-08T21:59:26.974Z,2.33
2023-03-08T22:02:28.460Z,1.83
2023-03-08T22:05:30.259Z,2.97
2023-03-08T22:08:31.567Z,2.45
2023-03-08T22:11:32.930Z,2.33
2023-03-08T22:14:34.287Z,2.03
2023-03-08T22:17:35.647Z,1.95
2023-03-08T22:20:36.984Z,1.60
2023-03-08T22:23:38.262Z,1.92
2023-03-08T22:26:39.523Z,1.60
2023-03-08T22:29:40.823Z,1.48
2023-03-08T22:32:42.341Z,1.73
2023-03-08T22:35:44.824Z,1.67
2023-03-08T22:38:46.378Z,2.28
2023-03-08T22:41:47.646Z,1.80
2023-03-08T22:44:48.933Z,1.80
2023-03-08T22:47:51.135Z,1.75
2023-03-08T22:51:09.972Z,1.83
2023-03-08T22:54:16.111Z,1.42
2023-03-08T22:57:18.673Z,1.63
2023-03-08T23:00:20.583Z,1.63
2023-03-08T23:03:21.845Z,1.38
2023-03-08T23:06:28.260Z,1.40
2023-03-08T23:09:30.509Z,1.45
2023-03-08T23:12:32.156Z,1.70
2023-03-08T23:15:33.394Z,1.48
2023-03-08T23:18:35.030Z,1.45
2023-03-08T23:21:38.149Z,1.55
2023-03-08T23:24:39.462Z,1.50
2023-03-08T23:27:41.158Z,2.15
2023-03-08T23:30:42.565Z,1.50
2023-03-08T23:33:44.378Z,1.42
2023-03-08T23:36:45.615Z,1.73
2023-03-08T23:39:46.893Z,1.60
2023-03-08T23:42:48.190Z,1.33
2023-03-08T23:45:49.464Z,0.95
2023-03-08T23:48:51.334Z,1.15
2023-03-08T23:51:52.569Z,1.40
2023-03-08T23:54:54.178Z,1.20
2023-03-08T23:57:55.457Z,1.33
